Weather at Julius Nyerere International Airport

Public forecast

Using degrees Celsius for public forecast. Weather courtesy of forecast.io.

Current aviation weather report (METAR) for Julius Nyerere International Airport

Retrieved 2021/10/27 06:00 UTC (15 seconds ago):

HTDA 270600Z 15009KT 9999 BKN014 27/24 Q1018 NOSIG

Aviation forecast (TAF) for Julius Nyerere International Airport

Retrieved 2021/10/27 06:24 UTC (0 seconds ago):

TAF HTDA 270500Z 2706/2812 21005KT 9999 SCT013 BECMG 2709/2712 09015KT BKN015